createdAt,value
2019-05-28T00:01:06.695Z,14.20
2019-05-28T00:03:38.382Z,14.10
2019-05-28T00:06:09.735Z,14.10
2019-05-28T00:08:41.639Z,14.00
2019-05-28T00:11:12.882Z,14.00
2019-05-28T00:13:44.445Z,13.90
2019-05-28T00:16:15.635Z,13.80
2019-05-28T00:18:46.781Z,13.80
2019-05-28T00:21:17.958Z,13.80
2019-05-28T00:23:49.229Z,13.70
2019-05-28T00:26:20.482Z,13.80
2019-05-28T00:28:51.978Z,13.80
2019-05-28T00:31:23.326Z,13.80
2019-05-28T00:33:54.642Z,13.80
2019-05-28T00:36:25.771Z,13.70
2019-05-28T00:38:57.152Z,13.70
2019-05-28T00:41:28.817Z,13.70
2019-05-28T00:44:00.023Z,13.70
2019-05-28T00:46:31.751Z,13.70
2019-05-28T00:49:03.108Z,13.60
2019-05-28T00:51:35.697Z,13.50
2019-05-28T00:54:07.075Z,13.50
2019-05-28T00:56:39.391Z,13.50
2019-05-28T00:59:11.656Z,13.60
2019-05-28T01:01:42.969Z,13.60
2019-05-28T01:04:14.738Z,13.60
2019-05-28T01:06:46.426Z,13.50
2019-05-28T01:09:17.727Z,13.50
2019-05-28T01:11:48.845Z,13.40
2019-05-28T01:14:20.141Z,13.40
2019-05-28T01:16:51.350Z,13.30
2019-05-28T01:19:22.860Z,13.20
2019-05-28T01:21:54.105Z,13.20
2019-05-28T01:24:25.491Z,13.10
2019-05-28T01:26:56.655Z,13.10
2019-05-28T01:29:27.831Z,13.10
2019-05-28T01:31:59.098Z,13.10
2019-05-28T01:34:30.326Z,13.10
2019-05-28T01:37:01.995Z,13.10
2019-05-28T01:39:33.106Z,13.10
2019-05-28T01:42:04.612Z,13.00
2019-05-28T01:44:35.727Z,13.00
2019-05-28T01:47:06.937Z,13.00
2019-05-28T01:49:38.160Z,13.10
2019-05-28T01:52:09.775Z,13.10
2019-05-28T01:54:41.061Z,13.10
2019-05-28T01:57:12.600Z,13.10
2019-05-28T01:59:44.213Z,13.10
2019-05-28T02:02:15.532Z,13.00
2019-05-28T02:04:46.932Z,13.00
2019-05-28T02:07:18.618Z,13.00
2019-05-28T02:09:50.154Z,13.00
2019-05-28T02:12:21.450Z,13.00
2019-05-28T02:14:53.077Z,13.20
2019-05-28T02:17:24.267Z,13.30
2019-05-28T02:19:55.725Z,13.30
2019-05-28T02:22:27.140Z,13.20
2019-05-28T02:24:58.345Z,13.00
2019-05-28T02:27:29.466Z,13.00
2019-05-28T02:30:01.102Z,12.80
2019-05-28T02:32:32.390Z,12.80
2019-05-28T02:35:04.033Z,12.70
2019-05-28T02:37:35.164Z,12.70
2019-05-28T02:40:07.754Z,12.70
2019-05-28T02:42:39.320Z,12.70
2019-05-28T02:45:11.987Z,12.80
2019-05-28T02:47:43.844Z,12.80
2019-05-28T02:50:17.391Z,12.80
2019-05-28T02:52:49.548Z,12.80
2019-05-28T02:55:20.915Z,12.70
2019-05-28T02:57:52.539Z,12.70
2019-05-28T03:00:24.237Z,12.60
2019-05-28T03:02:58.585Z,12.70
2019-05-28T03:05:32.513Z,12.70
2019-05-28T03:08:05.373Z,12.80
2019-05-28T03:11:01.339Z,12.80
2019-05-28T03:13:11.785Z,12.80
2019-05-28T03:15:47.492Z,13.10
2019-05-28T03:18:22.798Z,13.10
2019-05-28T03:20:57.103Z,13.00
2019-05-28T03:23:31.382Z,13.00
2019-05-28T03:26:03.060Z,12.90
2019-05-28T03:28:34.601Z,12.80
2019-05-28T03:31:06.791Z,12.70
2019-05-28T03:33:38.147Z,12.70
2019-05-28T03:36:12.918Z,12.70
2019-05-28T03:38:46.644Z,12.70
2019-05-28T03:41:18.542Z,12.70
2019-05-28T03:43:49.724Z,12.60
2019-05-28T03:46:21.028Z,12.60
2019-05-28T03:48:52.175Z,12.60
2019-05-28T03:51:23.664Z,12.60
2019-05-28T03:53:54.855Z,12.70
2019-05-28T03:56:26.547Z,12.60
2019-05-28T03:58:57.810Z,12.70
2019-05-28T04:01:29.499Z,12.60
2019-05-28T04:04:00.924Z,12.60
2019-05-28T04:06:32.231Z,12.60
2019-05-28T04:09:03.446Z,12.60
2019-05-28T04:11:44.434Z,12.70
2019-05-28T04:14:07.769Z,12.70
2019-05-28T04:16:38.898Z,12.70
2019-05-28T04:19:10.184Z,12.70
2019-05-28T04:21:41.329Z,12.70
2019-05-28T04:24:12.771Z,12.70
2019-05-28T04:26:44.122Z,12.90
2019-05-28T04:29:15.399Z,12.90
2019-05-28T04:31:46.588Z,13.00
2019-05-28T04:34:17.798Z,13.00
2019-05-28T04:36:48.982Z,13.00
2019-05-28T04:39:20.263Z,12.90
2019-05-28T04:41:51.558Z,13.00
2019-05-28T04:44:23.081Z,13.00
2019-05-28T04:47:01.215Z,13.00
2019-05-28T04:49:32.624Z,13.10
2019-05-28T04:52:04.280Z,13.10
2019-05-28T04:54:35.868Z,13.10
2019-05-28T04:57:07.564Z,13.10
2019-05-28T04:59:38.972Z,13.10
2019-05-28T05:02:10.246Z,13.20
2019-05-28T05:04:41.564Z,13.10
2019-05-28T05:07:13.137Z,13.10
2019-05-28T05:09:44.397Z,13.20
2019-05-28T05:12:15.958Z,13.10
2019-05-28T05:14:47.499Z,13.10
2019-05-28T05:17:18.767Z,13.20
2019-05-28T05:19:50.480Z,13.30
2019-05-28T05:22:21.698Z,13.40
2019-05-28T05:24:52.869Z,13.60
2019-05-28T05:27:24.079Z,13.80
2019-05-28T05:29:55.438Z,13.80
2019-05-28T05:32:27.855Z,13.80
2019-05-28T05:34:59.193Z,13.90
2019-05-28T05:37:30.467Z,14.10
2019-05-28T05:40:01.718Z,14.30
2019-05-28T05:42:33.449Z,14.30
2019-05-28T05:45:07.614Z,14.50
2019-05-28T05:47:38.540Z,14.60
2019-05-28T05:50:10.101Z,14.70
2019-05-28T05:52:41.686Z,15.00
2019-05-28T05:55:13.152Z,15.20
2019-05-28T05:57:44.747Z,15.50
2019-05-28T06:00:17.384Z,15.60
2019-05-28T06:02:48.638Z,15.70
2019-05-28T06:05:19.910Z,16.00
2019-05-28T06:07:51.035Z,16.10
2019-05-28T06:10:22.329Z,16.30
2019-05-28T06:12:53.724Z,16.60
2019-05-28T06:15:24.946Z,16.60
2019-05-28T06:17:56.453Z,16.70
2019-05-28T06:20:27.810Z,17.10
2019-05-28T06:22:59.160Z,17.30
2019-05-28T06:25:30.499Z,17.40
2019-05-28T06:28:01.730Z,17.80
2019-05-28T06:30:32.997Z,17.90
2019-05-28T06:33:04.749Z,18.40
2019-05-28T06:35:36.363Z,19.20
2019-05-28T06:38:07.729Z,20.10
2019-05-28T06:40:39.106Z,19.80
2019-05-28T06:43:10.640Z,20.00
2019-05-28T06:45:42.080Z,20.10
2019-05-28T06:48:13.699Z,20.30
2019-05-28T06:50:44.993Z,19.60
2019-05-28T06:53:16.097Z,19.60
2019-05-28T06:55:47.388Z,19.80
2019-05-28T06:58:19.011Z,20.00
2019-05-28T07:00:50.261Z,20.00
2019-05-28T07:03:21.505Z,19.70
2019-05-28T07:06:06.268Z,20.00
2019-05-28T07:08:26.084Z,21.20
2019-05-28T07:10:58.602Z,21.90
2019-05-28T07:13:30.154Z,22.10
2019-05-28T07:16:01.496Z,21.90
2019-05-28T07:18:32.866Z,21.50
2019-05-28T07:21:04.438Z,21.50
2019-05-28T07:23:36.118Z,22.40
2019-05-28T07:26:07.422Z,23.30
2019-05-28T07:28:38.703Z,23.70
2019-05-28T07:31:09.969Z,23.80
2019-05-28T07:33:41.218Z,22.20
2019-05-28T07:36:12.640Z,22.20
2019-05-28T07:38:43.799Z,22.60
2019-05-28T07:41:15.078Z,22.30
2019-05-28T07:43:46.601Z,21.90
2019-05-28T07:46:17.760Z,21.70
2019-05-28T07:48:49.402Z,21.70
2019-05-28T07:51:20.804Z,22.60
2019-05-28T07:53:52.780Z,23.70
2019-05-28T07:56:24.013Z,24.80
2019-05-28T07:58:55.207Z,25.10
2019-05-28T08:01:26.617Z,24.80
2019-05-28T08:03:57.936Z,24.00
2019-05-28T08:06:29.111Z,22.90
2019-05-28T08:09:00.346Z,22.60
2019-05-28T08:11:31.951Z,22.70
2019-05-28T08:14:03.287Z,23.30
2019-05-28T08:16:35.197Z,23.90
2019-05-28T08:19:08.846Z,25.30
2019-05-28T08:21:39.539Z,26.40
2019-05-28T08:24:10.731Z,27.80
2019-05-28T08:26:41.996Z,26.50
2019-05-28T08:29:13.380Z,25.30
2019-05-28T08:31:45.281Z,24.90
2019-05-28T08:34:19.366Z,25.10
2019-05-28T08:37:04.437Z,25.70
2019-05-28T08:39:22.402Z,26.70
2019-05-28T08:41:53.838Z,27.30
2019-05-28T08:44:25.101Z,28.70
2019-05-28T08:46:57.274Z,27.90
2019-05-28T08:49:28.769Z,26.80
2019-05-28T08:52:00.098Z,26.00
2019-05-28T08:54:33.157Z,25.00
2019-05-28T08:57:04.948Z,24.60
2019-05-28T08:59:36.217Z,24.80
2019-05-28T09:02:26.003Z,25.20
2019-05-28T09:04:40.449Z,26.10
2019-05-28T09:07:11.691Z,26.50
2019-05-28T09:10:02.127Z,27.20
2019-05-28T09:12:33.825Z,27.90
2019-05-28T09:15:05.566Z,27.90
2019-05-28T09:17:36.736Z,27.80
2019-05-28T09:20:08.160Z,28.00
2019-05-28T09:22:39.715Z,26.90
2019-05-28T09:25:11.193Z,26.50
2019-05-28T09:27:42.391Z,26.60
2019-05-28T09:30:14.854Z,26.30
2019-05-28T09:32:46.120Z,26.00
2019-05-28T09:35:17.547Z,26.10
2019-05-28T09:37:48.922Z,26.20
2019-05-28T09:40:20.687Z,27.00
2019-05-28T09:42:52.064Z,27.90
2019-05-28T09:45:23.666Z,27.50
2019-05-28T09:47:55.413Z,26.00
2019-05-28T09:50:31.110Z,25.60
2019-05-28T09:52:59.823Z,24.70
2019-05-28T09:55:31.094Z,23.10
2019-05-28T09:58:02.400Z,22.10
2019-05-28T10:00:36.811Z,21.30
2019-05-28T10:03:08.515Z,20.10
2019-05-28T10:05:39.841Z,19.00
2019-05-28T10:08:11.156Z,18.20
2019-05-28T10:10:42.523Z,17.60
2019-05-28T10:13:13.894Z,18.20
2019-05-28T10:15:45.597Z,19.40
2019-05-28T10:18:17.156Z,20.20
2019-05-28T10:20:48.246Z,21.20
2019-05-28T10:23:19.549Z,22.70
2019-05-28T10:25:50.872Z,24.00
2019-05-28T10:28:22.179Z,24.00
2019-05-28T10:30:53.455Z,24.20
2019-05-28T10:33:24.862Z,23.60
2019-05-28T10:35:56.116Z,22.90
2019-05-28T10:38:27.566Z,22.10
2019-05-28T10:40:58.925Z,21.50
2019-05-28T10:43:30.269Z,22.40
2019-05-28T10:46:01.585Z,22.70
2019-05-28T10:48:33.748Z,23.20
2019-05-28T10:51:05.081Z,22.70
2019-05-28T10:53:36.359Z,21.30
2019-05-28T10:56:07.564Z,20.10
2019-05-28T10:58:39.264Z,19.40
2019-05-28T11:01:10.916Z,19.00
2019-05-28T11:03:42.595Z,18.70
2019-05-28T11:06:13.952Z,18.60
2019-05-28T11:08:45.251Z,18.70
2019-05-28T11:11:16.443Z,18.70
2019-05-28T11:13:53.133Z,18.10
2019-05-28T11:16:20.764Z,17.60
2019-05-28T11:18:51.904Z,17.00
2019-05-28T11:21:22.995Z,16.70
2019-05-28T11:23:54.282Z,16.60
2019-05-28T11:26:25.545Z,16.20
2019-05-28T11:28:56.756Z,16.30
2019-05-28T11:31:28.310Z,16.30
2019-05-28T11:33:59.780Z,15.90
2019-05-28T11:36:31.028Z,15.40
2019-05-28T11:39:02.329Z,15.40
2019-05-28T11:41:42.222Z,15.40
2019-05-28T11:44:07.013Z,15.60
2019-05-28T11:46:38.390Z,15.70
2019-05-28T11:49:09.655Z,16.00
2019-05-28T11:51:40.862Z,16.00
2019-05-28T11:54:12.179Z,16.00
2019-05-28T11:56:46.100Z,16.00
2019-05-28T11:59:16.471Z,16.00
2019-05-28T12:01:49.058Z,16.30
2019-05-28T12:04:21.067Z,16.70
2019-05-28T12:06:52.692Z,17.30
2019-05-28T12:09:23.913Z,18.00
2019-05-28T12:11:55.291Z,18.90
2019-05-28T12:14:26.577Z,19.10
2019-05-28T12:16:57.906Z,19.60
2019-05-28T12:19:29.267Z,19.90
2019-05-28T12:22:00.620Z,19.80
2019-05-28T12:24:32.259Z,19.90
2019-05-28T12:27:04.068Z,19.70
2019-05-28T12:29:50.970Z,19.30
2019-05-28T12:32:10.365Z,19.20
2019-05-28T12:34:42.274Z,19.50
2019-05-28T12:37:13.574Z,19.70
2019-05-28T12:39:44.805Z,19.90
2019-05-28T12:42:16.339Z,19.60
2019-05-28T12:44:47.646Z,19.40
2019-05-28T12:47:18.978Z,19.30
2019-05-28T12:49:50.215Z,19.20
2019-05-28T12:52:21.489Z,19.20
2019-05-28T12:54:52.935Z,19.10
2019-05-28T12:57:24.307Z,18.90
2019-05-28T12:59:55.490Z,18.80
2019-05-28T13:02:26.691Z,18.50
2019-05-28T13:04:58.260Z,18.80
2019-05-28T13:07:29.712Z,19.30
2019-05-28T13:10:00.867Z,19.70
2019-05-28T13:12:32.065Z,19.90
2019-05-28T13:15:03.254Z,19.70
2019-05-28T13:17:34.769Z,19.90
2019-05-28T13:20:06.543Z,20.10
2019-05-28T13:22:38.228Z,20.30
2019-05-28T13:25:10.322Z,20.10
2019-05-28T13:27:41.581Z,20.10
2019-05-28T13:30:15.127Z,20.70
2019-05-28T13:32:46.430Z,21.00
2019-05-28T13:35:18.925Z,21.10
2019-05-28T13:37:50.129Z,20.40
2019-05-28T13:40:22.415Z,20.20
2019-05-28T13:42:53.748Z,20.20
2019-05-28T13:45:25.084Z,20.50
2019-05-28T13:47:56.671Z,19.70
2019-05-28T13:50:29.535Z,19.10
2019-05-28T13:53:00.978Z,19.00
2019-05-28T13:55:32.401Z,18.80
2019-05-28T13:58:03.664Z,18.50
2019-05-28T14:00:35.191Z,18.60
2019-05-28T14:03:06.801Z,18.80
2019-05-28T14:05:38.069Z,18.60
2019-05-28T14:08:09.341Z,18.40
2019-05-28T14:10:40.872Z,18.50
2019-05-28T14:13:11.992Z,18.60
2019-05-28T14:15:43.355Z,18.60
2019-05-28T14:18:15.009Z,18.60
2019-05-28T14:20:46.978Z,18.60
2019-05-28T14:23:18.223Z,18.50
2019-05-28T14:25:49.853Z,18.30
2019-05-28T14:28:21.639Z,18.20
2019-05-28T14:31:00.027Z,18.30
2019-05-28T14:33:26.399Z,18.10
2019-05-28T14:35:57.713Z,17.90
2019-05-28T14:38:29.216Z,17.70
2019-05-28T14:41:01.179Z,17.50
2019-05-28T14:43:32.715Z,17.60
2019-05-28T14:46:03.971Z,17.60
2019-05-28T14:48:35.315Z,17.60
2019-05-28T14:51:06.585Z,17.40
2019-05-28T14:53:37.783Z,17.40
2019-05-28T14:56:09.225Z,17.60
2019-05-28T14:58:40.439Z,17.60
2019-05-28T15:01:11.699Z,17.50
2019-05-28T15:03:43.383Z,16.90
2019-05-28T15:06:14.714Z,16.40
2019-05-28T15:08:45.857Z,16.20
2019-05-28T15:11:17.130Z,16.10
2019-05-28T15:13:48.618Z,16.00
2019-05-28T15:16:19.871Z,16.10
2019-05-28T15:18:51.173Z,16.30
2019-05-28T15:21:22.621Z,16.40
2019-05-28T15:23:53.800Z,16.40
2019-05-28T15:26:24.987Z,16.40
2019-05-28T15:28:56.276Z,16.10
2019-05-28T15:31:27.558Z,15.90
2019-05-28T15:33:58.915Z,15.70
2019-05-28T15:36:30.505Z,15.40
2019-05-28T15:39:01.680Z,15.30
2019-05-28T15:41:32.784Z,15.50
2019-05-28T15:44:04.439Z,15.50
2019-05-28T15:46:36.135Z,15.70
2019-05-28T15:49:07.471Z,15.80
2019-05-28T15:51:38.763Z,15.70
2019-05-28T15:54:10.097Z,15.90
2019-05-28T15:56:41.719Z,16.20
2019-05-28T15:59:13.467Z,16.50
2019-05-28T16:01:45.068Z,16.60
2019-05-28T16:04:16.566Z,16.70
2019-05-28T16:06:48.024Z,16.70
2019-05-28T16:09:19.732Z,16.70
2019-05-28T16:11:50.945Z,16.90
2019-05-28T16:14:22.144Z,17.00
2019-05-28T16:16:53.449Z,17.10
2019-05-28T16:19:25.116Z,17.20
2019-05-28T16:21:56.384Z,17.10
2019-05-28T16:24:27.852Z,17.10
2019-05-28T16:26:59.015Z,16.80
2019-05-28T16:29:30.406Z,16.50
2019-05-28T16:32:01.734Z,16.40
2019-05-28T16:34:32.960Z,16.30
2019-05-28T16:37:04.430Z,16.00
2019-05-28T16:39:36.612Z,15.90
2019-05-28T16:42:07.849Z,15.90
2019-05-28T16:44:39.344Z,15.90
2019-05-28T16:47:17.674Z,15.90
2019-05-28T16:49:44.016Z,16.00
2019-05-28T16:52:15.449Z,15.80
2019-05-28T16:54:46.735Z,15.80
2019-05-28T16:57:17.980Z,15.80
2019-05-28T16:59:49.175Z,15.70
2019-05-28T17:02:20.515Z,15.60
2019-05-28T17:04:51.716Z,15.60
2019-05-28T17:07:23.391Z,15.60
2019-05-28T17:09:54.514Z,15.50
2019-05-28T17:12:25.626Z,15.50
2019-05-28T17:14:57.245Z,15.60
2019-05-28T17:17:28.509Z,15.50
2019-05-28T17:19:59.833Z,15.50
2019-05-28T17:22:31.436Z,15.30
2019-05-28T17:25:03.031Z,15.20
2019-05-28T17:27:34.705Z,15.40
2019-05-28T17:30:17.855Z,15.60
2019-05-28T17:32:40.395Z,15.60
2019-05-28T17:35:12.921Z,15.60
2019-05-28T17:37:44.575Z,15.60
2019-05-28T17:40:21.898Z,15.70
2019-05-28T17:42:49.567Z,15.50
2019-05-28T17:45:21.435Z,15.40
2019-05-28T17:47:52.794Z,15.30
2019-05-28T17:50:24.521Z,15.40
2019-05-28T17:52:56.383Z,15.40
2019-05-28T17:55:27.863Z,15.40
2019-05-28T17:57:59.143Z,15.40
2019-05-28T18:00:30.417Z,15.20
2019-05-28T18:03:01.985Z,15.00
2019-05-28T18:05:33.828Z,14.80
2019-05-28T18:08:05.183Z,14.90
2019-05-28T18:10:36.475Z,14.80
2019-05-28T18:13:07.842Z,14.80
2019-05-28T18:15:39.125Z,14.80
2019-05-28T18:18:10.785Z,14.70
2019-05-28T18:20:42.083Z,14.70
2019-05-28T18:23:13.328Z,14.70
2019-05-28T18:25:44.626Z,14.80
2019-05-28T18:28:16.115Z,14.90
2019-05-28T18:30:47.395Z,14.70
2019-05-28T18:33:18.691Z,14.70
2019-05-28T18:35:49.892Z,14.70
2019-05-28T18:38:21.012Z,14.70
2019-05-28T18:40:53.169Z,14.60
2019-05-28T18:43:24.897Z,14.60
2019-05-28T18:45:56.170Z,14.70
2019-05-28T18:48:27.391Z,14.70
2019-05-28T18:50:58.669Z,14.70
2019-05-28T18:53:29.968Z,14.60
2019-05-28T18:56:16.500Z,14.70
2019-05-28T18:58:35.849Z,14.70
2019-05-28T19:01:07.319Z,14.70
2019-05-28T19:03:38.476Z,14.90
2019-05-28T19:06:09.732Z,14.90
2019-05-28T19:08:41.153Z,14.60
2019-05-28T19:11:12.349Z,14.40
2019-05-28T19:13:44.548Z,14.30
2019-05-28T19:16:15.885Z,14.30
2019-05-28T19:18:46.968Z,14.30
2019-05-28T19:21:18.393Z,14.30
2019-05-28T19:23:49.758Z,14.20
2019-05-28T19:26:20.934Z,14.10
2019-05-28T19:28:52.037Z,14.10
2019-05-28T19:31:23.277Z,14.20
2019-05-28T19:33:54.952Z,14.10
2019-05-28T19:36:26.660Z,14.00
2019-05-28T19:38:59.898Z,14.00
2019-05-28T19:41:31.077Z,14.20
2019-05-28T19:44:02.285Z,14.10
2019-05-28T19:46:33.844Z,14.10
2019-05-28T19:49:05.406Z,14.20
2019-05-28T19:51:36.736Z,14.30
2019-05-28T19:54:07.994Z,14.30
2019-05-28T19:56:39.244Z,14.10
2019-05-28T19:59:10.435Z,14.00
2019-05-28T20:01:41.654Z,13.90
2019-05-28T20:04:13.181Z,13.90
2019-05-28T20:06:44.429Z,13.90
2019-05-28T20:09:17.381Z,13.90
2019-05-28T20:11:48.571Z,13.90
2019-05-28T20:14:19.704Z,13.90
2019-05-28T20:16:51.324Z,13.90
2019-05-28T20:19:22.401Z,13.90
2019-05-28T20:21:55.318Z,13.90
2019-05-28T20:24:27.003Z,14.10
2019-05-28T20:26:58.119Z,14.10
2019-05-28T20:29:29.303Z,14.00
2019-05-28T20:32:01.149Z,13.90
2019-05-28T20:34:32.639Z,13.80
2019-05-28T20:37:03.752Z,13.80
2019-05-28T20:39:35.282Z,13.80
2019-05-28T20:42:08.107Z,13.70
2019-05-28T20:44:39.436Z,13.80
2019-05-28T20:47:11.010Z,13.60
2019-05-28T20:49:42.249Z,13.60
2019-05-28T20:52:13.584Z,13.70
2019-05-28T20:54:44.779Z,13.80
2019-05-28T20:57:16.121Z,13.70
2019-05-28T20:59:47.421Z,13.70
2019-05-28T21:02:19.352Z,13.70
2019-05-28T21:04:50.923Z,13.80
2019-05-28T21:07:22.437Z,13.80
2019-05-28T21:09:54.559Z,13.80
2019-05-28T21:12:25.760Z,13.80
2019-05-28T21:14:56.942Z,13.90
2019-05-28T21:17:28.119Z,13.80
2019-05-28T21:19:59.481Z,13.80
2019-05-28T21:22:30.574Z,13.80
2019-05-28T21:25:01.921Z,13.70
2019-05-28T21:27:33.074Z,13.60
2019-05-28T21:30:05.750Z,13.70
2019-05-28T21:32:36.955Z,13.80
2019-05-28T21:35:08.411Z,13.80
2019-05-28T21:37:39.576Z,13.80
2019-05-28T21:40:11.517Z,13.70
2019-05-28T21:42:56.489Z,13.70
2019-05-28T21:45:17.205Z,13.80
2019-05-28T21:47:48.418Z,13.80
2019-05-28T21:50:20.102Z,13.80
2019-05-28T21:52:51.343Z,13.80
2019-05-28T21:55:22.682Z,13.80
2019-05-28T21:57:53.841Z,13.70
2019-05-28T22:00:44.244Z,13.80
2019-05-28T22:03:16.843Z,13.80
2019-05-28T22:05:48.151Z,13.90
2019-05-28T22:08:19.258Z,13.80
2019-05-28T22:10:50.529Z,13.80
2019-05-28T22:13:22.813Z,13.80
2019-05-28T22:15:54.250Z,13.70
2019-05-28T22:18:25.484Z,13.70
2019-05-28T22:20:58.109Z,13.50
2019-05-28T22:23:29.314Z,13.50
2019-05-28T22:26:00.864Z,13.60
2019-05-28T22:28:32.469Z,13.50
2019-05-28T22:31:03.900Z,13.50
2019-05-28T22:33:35.685Z,13.50
2019-05-28T22:36:07.557Z,13.50
2019-05-28T22:38:38.804Z,13.50
2019-05-28T22:41:10.052Z,13.40
2019-05-28T22:43:41.666Z,13.50
2019-05-28T22:46:12.843Z,13.50
2019-05-28T22:48:44.401Z,13.70
2019-05-28T22:51:15.775Z,13.50
2019-05-28T22:53:47.369Z,13.50
2019-05-28T22:56:18.905Z,13.50
2019-05-28T22:58:49.990Z,13.50
2019-05-28T23:01:21.256Z,13.40
2019-05-28T23:03:52.721Z,13.50
2019-05-28T23:06:23.993Z,13.60
2019-05-28T23:08:55.160Z,13.60
2019-05-28T23:11:26.290Z,13.60
2019-05-28T23:13:57.452Z,13.60
2019-05-28T23:16:28.753Z,13.70
2019-05-28T23:19:00.419Z,13.70
2019-05-28T23:21:31.835Z,13.60
2019-05-28T23:24:03.210Z,13.60
2019-05-28T23:26:34.483Z,13.50
2019-05-28T23:29:05.873Z,13.40
2019-05-28T23:31:37.096Z,13.30
2019-05-28T23:34:08.411Z,13.30
2019-05-28T23:36:39.999Z,13.30
2019-05-28T23:39:11.183Z,13.30
2019-05-28T23:41:42.677Z,13.30
2019-05-28T23:44:13.971Z,13.00
2019-05-28T23:46:45.263Z,12.90
2019-05-28T23:49:18.078Z,12.80
2019-05-28T23:51:49.632Z,12.70
2019-05-28T23:54:20.819Z,12.60
2019-05-28T23:56:52.003Z,12.60
2019-05-28T23:59:23.337Z,12.40
